createdAt,value
2018-04-23T00:00:25.591Z,78.45
2018-04-23T00:02:54.263Z,78.70
2018-04-23T00:05:23.037Z,78.82
2018-04-23T00:07:54.454Z,78.69
2018-04-23T00:10:23.253Z,78.75
2018-04-23T00:12:51.794Z,78.90
2018-04-23T00:15:20.442Z,78.70
2018-04-23T00:17:49.920Z,79.05
2018-04-23T00:20:18.596Z,79.04
2018-04-23T00:22:47.160Z,78.99
2018-04-23T00:25:16.502Z,79.29
2018-04-23T00:27:46.309Z,79.12
2018-04-23T00:30:15.124Z,79.16
2018-04-23T00:32:43.757Z,79.21
2018-04-23T00:35:13.479Z,79.27
2018-04-23T00:37:42.534Z,79.30
2018-04-23T00:40:11.254Z,79.38
2018-04-23T00:42:39.905Z,79.45
2018-04-23T00:45:08.601Z,79.76
2018-04-23T00:47:37.242Z,80.24
2018-04-23T00:50:05.871Z,80.91
2018-04-23T00:52:34.559Z,80.72
2018-04-23T00:55:03.277Z,80.52
2018-04-23T00:57:32.004Z,80.85
2018-04-23T01:00:00.693Z,81.10
2018-04-23T01:02:29.346Z,81.25
2018-04-23T01:04:57.952Z,81.50
2018-04-23T01:07:27.527Z,81.28
2018-04-23T01:09:56.452Z,81.62
2018-04-23T01:12:25.462Z,82.05
2018-04-23T01:14:54.171Z,82.30
2018-04-23T01:17:22.964Z,82.05
2018-04-23T01:19:51.559Z,81.87
2018-04-23T01:22:20.239Z,81.66
2018-04-23T01:24:48.829Z,81.32
2018-04-23T01:29:51.103Z,81.47
2018-04-23T01:32:19.794Z,81.87
2018-04-23T01:34:49.224Z,81.82
2018-04-23T01:37:18.220Z,81.76
2018-04-23T01:42:21.711Z,81.94
2018-04-23T01:44:50.389Z,81.41
2018-04-23T01:47:19.813Z,80.48
2018-04-23T01:52:22.993Z,81.28
2018-04-23T01:54:51.741Z,81.53
2018-04-23T01:57:20.387Z,81.86
2018-04-23T01:59:49.226Z,81.85
2018-04-23T02:02:18.881Z,81.84
2018-04-23T02:04:47.904Z,82.49
2018-04-23T02:07:16.609Z,82.71
2018-04-23T02:09:46.172Z,82.85
2018-04-23T02:12:15.752Z,83.01
2018-04-23T02:14:44.378Z,83.18
2018-04-23T02:17:13.120Z,83.57
2018-04-23T02:19:41.757Z,83.47
2018-04-23T02:22:10.349Z,83.43
2018-04-23T02:24:39.075Z,84.19
2018-04-23T02:27:08.190Z,83.48
2018-04-23T02:29:37.349Z,82.91
2018-04-23T02:32:07.451Z,82.58
2018-04-23T02:34:36.481Z,82.47
2018-04-23T02:37:05.220Z,82.20
2018-04-23T02:39:34.753Z,82.00
2018-04-23T02:42:03.909Z,82.27
2018-04-23T02:44:32.567Z,83.04
2018-04-23T02:47:01.867Z,82.96
2018-04-23T02:49:30.850Z,84.03
2018-04-23T02:51:59.520Z,84.26
2018-04-23T02:54:28.851Z,85.06
2018-04-23T02:56:58.091Z,85.27
2018-04-23T02:59:26.785Z,85.32
2018-04-23T03:01:55.625Z,85.13
2018-04-23T03:04:25.598Z,85.00
2018-04-23T03:06:54.392Z,85.04
2018-04-23T03:09:23.032Z,84.95
2018-04-23T03:11:51.700Z,84.99
2018-04-23T03:14:20.345Z,84.91
2018-04-23T03:16:49.779Z,83.99
2018-04-23T03:19:18.460Z,81.78
2018-04-23T03:21:48.376Z,81.93
2018-04-23T03:24:16.932Z,82.07
2018-04-23T03:26:46.350Z,82.04
2018-04-23T03:29:14.985Z,82.29
2018-04-23T03:31:43.693Z,82.62
2018-04-23T03:34:12.724Z,83.05
2018-04-23T03:36:42.149Z,83.62
2018-04-23T03:39:10.875Z,84.13
2018-04-23T03:41:39.550Z,84.60
2018-04-23T03:44:08.298Z,84.64
2018-04-23T03:46:37.011Z,84.79
2018-04-23T03:49:06.497Z,84.82
2018-04-23T03:51:35.106Z,84.77
2018-04-23T03:54:03.680Z,84.72
2018-04-23T03:56:32.464Z,84.85
2018-04-23T03:59:01.883Z,85.04
2018-04-23T04:01:30.437Z,85.42
2018-04-23T04:03:59.458Z,85.63
2018-04-23T04:06:29.034Z,85.62
2018-04-23T04:08:59.623Z,85.53
2018-04-23T04:11:28.645Z,85.35
2018-04-23T04:14:16.163Z,85.51
2018-04-23T04:16:58.792Z,85.74
2018-04-23T04:19:27.702Z,85.61
2018-04-23T04:21:56.393Z,85.26
2018-04-23T04:24:25.266Z,84.56
2018-04-23T04:26:53.937Z,83.71
2018-04-23T04:31:56.276Z,83.79
2018-04-23T04:34:25.247Z,83.73
2018-04-23T04:36:54.237Z,83.81
2018-04-23T04:39:24.101Z,83.77
2018-04-23T04:41:52.865Z,84.02
2018-04-23T04:44:21.499Z,83.88
2018-04-23T04:46:50.280Z,83.60
2018-04-23T04:49:18.973Z,83.54
2018-04-23T04:51:47.572Z,83.82
2018-04-23T04:54:16.289Z,83.60
2018-04-23T04:56:44.992Z,83.76
2018-04-23T04:59:13.724Z,83.52
2018-04-23T05:01:43.318Z,83.52
2018-04-23T05:04:12.249Z,83.46
2018-04-23T05:06:40.978Z,83.18
2018-04-23T05:09:11.193Z,83.03
2018-04-23T05:11:40.057Z,82.91
2018-04-23T05:14:08.622Z,82.72
2018-04-23T05:16:37.409Z,82.14
2018-04-23T05:19:06.084Z,81.74
2018-04-23T05:21:34.842Z,81.79
2018-04-23T05:24:03.461Z,79.78
2018-04-23T05:29:07.209Z,73.22
2018-04-23T05:31:35.775Z,71.34
2018-04-23T05:34:04.343Z,68.85
2018-04-23T05:39:08.027Z,65.18
2018-04-23T05:41:36.714Z,62.50
2018-04-23T05:44:06.190Z,60.62
2018-04-23T05:46:34.870Z,60.01
2018-04-23T05:49:03.477Z,60.05
2018-04-23T05:51:32.291Z,59.26
2018-04-23T05:54:01.104Z,58.19
2018-04-23T05:56:29.817Z,57.18
2018-04-23T05:58:58.599Z,57.61
2018-04-23T06:01:28.168Z,56.68
2018-04-23T06:03:57.101Z,55.67
2018-04-23T06:06:26.087Z,55.55
2018-04-23T06:08:54.919Z,55.59
2018-04-23T06:11:23.594Z,54.50
2018-04-23T06:13:52.257Z,53.78
2018-04-23T06:16:21.655Z,52.30
2018-04-23T06:18:50.828Z,52.24
2018-04-23T06:23:53.351Z,50.39
2018-04-23T06:26:21.992Z,50.27
2018-04-23T06:28:50.754Z,48.38
2018-04-23T06:31:20.720Z,47.32
2018-04-23T06:33:51.537Z,47.16
2018-04-23T06:36:21.138Z,46.75
2018-04-23T06:38:49.881Z,46.64
2018-04-23T06:41:18.649Z,46.20
2018-04-23T06:43:48.975Z,45.99
2018-04-23T06:48:51.264Z,45.73
2018-04-23T06:51:19.991Z,44.39
2018-04-23T06:53:49.864Z,41.94
2018-04-23T06:56:20.817Z,42.04
2018-04-23T06:58:50.066Z,43.45
2018-04-23T07:01:19.522Z,42.01
2018-04-23T07:03:48.241Z,41.98
2018-04-23T07:06:17.006Z,40.89
2018-04-23T07:08:47.423Z,40.69
2018-04-23T07:11:16.387Z,39.67
2018-04-23T07:13:45.356Z,38.47
2018-04-23T07:16:14.266Z,38.40
2018-04-23T07:18:42.894Z,38.27
2018-04-23T07:23:46.327Z,36.45
2018-04-23T07:26:15.077Z,36.27
2018-04-23T07:28:43.752Z,36.02
2018-04-23T07:31:12.497Z,35.60
2018-04-23T07:33:41.259Z,36.55
2018-04-23T07:36:09.961Z,35.85
2018-04-23T07:38:38.743Z,35.98
2018-04-23T07:41:07.529Z,36.48
2018-04-23T07:43:36.210Z,36.01
2018-04-23T07:46:04.937Z,35.02
2018-04-23T07:48:34.337Z,34.21
2018-04-23T07:51:03.511Z,32.90
2018-04-23T07:53:32.965Z,32.08
2018-04-23T07:56:02.098Z,32.29
2018-04-23T07:58:30.828Z,31.65
2018-04-23T08:01:00.864Z,30.07
2018-04-23T08:03:30.751Z,29.22
2018-04-23T08:05:59.826Z,28.65
2018-04-23T08:08:28.486Z,30.28
2018-04-23T08:10:57.352Z,29.19
2018-04-23T08:13:25.958Z,26.39
2018-04-23T08:15:54.739Z,26.07
2018-04-23T08:20:58.175Z,24.58
2018-04-23T08:23:27.030Z,24.78
2018-04-23T08:25:55.700Z,24.28
2018-04-23T08:28:25.196Z,23.37
2018-04-23T08:30:53.898Z,22.97
2018-04-23T08:33:22.659Z,22.16
2018-04-23T08:35:51.502Z,21.74
2018-04-23T08:38:20.213Z,22.15
2018-04-23T08:40:48.878Z,21.55
2018-04-23T08:43:18.247Z,22.13
2018-04-23T08:45:47.060Z,21.41
2018-04-23T08:48:15.727Z,22.22
2018-04-23T08:50:46.784Z,22.55
2018-04-23T08:53:16.447Z,22.16
2018-04-23T08:55:46.798Z,21.83
2018-04-23T08:58:15.569Z,21.57
2018-04-23T09:00:45.142Z,24.17
2018-04-23T09:03:13.963Z,24.03
2018-04-23T09:05:42.900Z,23.14
2018-04-23T09:08:11.469Z,22.47
2018-04-23T09:10:40.331Z,22.45
2018-04-23T09:13:09.839Z,20.84
2018-04-23T09:15:38.742Z,19.18
2018-04-23T09:18:07.627Z,17.30
2018-04-23T09:20:37.061Z,18.09
2018-04-23T09:23:06.899Z,18.08
2018-04-23T09:25:35.588Z,18.02
2018-04-23T09:28:04.300Z,17.73
2018-04-23T09:30:32.892Z,17.56
2018-04-23T09:33:01.634Z,16.49
2018-04-23T09:35:30.326Z,17.04
2018-04-23T09:40:32.556Z,19.31
2018-04-23T09:43:01.276Z,18.87
2018-04-23T09:45:30.011Z,19.07
2018-04-23T09:47:59.256Z,19.13
2018-04-23T09:50:28.757Z,17.63
2018-04-23T09:52:58.295Z,17.51
2018-04-23T09:55:27.024Z,17.35
2018-04-23T09:57:55.807Z,17.63
2018-04-23T10:00:31.945Z,18.50
2018-04-23T10:03:06.439Z,19.70
2018-04-23T10:05:35.242Z,19.24
2018-04-23T10:08:04.111Z,18.09
2018-04-23T10:10:33.331Z,19.06
2018-04-23T10:13:02.145Z,18.01
2018-04-23T10:15:31.697Z,16.75
2018-04-23T10:18:01.176Z,17.01
2018-04-23T10:20:29.893Z,17.32
2018-04-23T10:22:58.604Z,21.11
2018-04-23T10:25:27.440Z,21.72
2018-04-23T10:27:56.958Z,21.32
2018-04-23T10:32:59.592Z,19.44
2018-04-23T10:35:29.620Z,18.81
2018-04-23T10:37:59.074Z,18.28
2018-04-23T10:40:28.575Z,18.80
2018-04-23T10:42:57.311Z,19.05
2018-04-23T10:48:00.396Z,17.61
2018-04-23T10:50:29.781Z,16.22
2018-04-23T10:52:58.417Z,15.69
2018-04-23T10:55:27.174Z,15.48
2018-04-23T10:57:55.780Z,15.93
2018-04-23T11:00:24.541Z,14.41
2018-04-23T11:02:54.796Z,14.43
2018-04-23T11:05:23.992Z,15.49
2018-04-23T11:07:52.793Z,15.11
2018-04-23T11:10:21.471Z,15.22
2018-04-23T11:12:50.926Z,15.37
2018-04-23T11:15:20.012Z,14.92
2018-04-23T11:17:49.418Z,14.89
2018-04-23T11:20:19.142Z,13.90
2018-04-23T11:22:47.863Z,14.87
2018-04-23T11:25:16.879Z,15.40
2018-04-23T11:27:45.615Z,14.45
2018-04-23T11:30:14.402Z,14.78
2018-04-23T11:32:44.206Z,14.53
2018-04-23T11:35:13.335Z,15.05
2018-04-23T11:40:16.250Z,14.50
2018-04-23T11:42:44.876Z,15.31
2018-04-23T11:45:13.716Z,14.83
2018-04-23T11:47:42.551Z,14.53
2018-04-23T11:50:11.370Z,14.75
2018-04-23T11:55:14.881Z,14.92
2018-04-23T11:57:45.788Z,14.55
2018-04-23T12:00:15.037Z,14.78
2018-04-23T12:02:43.883Z,14.63
2018-04-23T12:05:13.456Z,14.87
2018-04-23T12:07:42.367Z,14.83
2018-04-23T12:10:11.105Z,13.76
2018-04-23T12:12:39.897Z,14.48
2018-04-23T12:15:08.989Z,14.40
2018-04-23T12:17:37.755Z,14.80
2018-04-23T12:20:06.731Z,15.06
2018-04-23T12:22:37.112Z,13.88
2018-04-23T12:25:07.395Z,13.47
2018-04-23T12:27:36.479Z,15.21
2018-04-23T12:30:05.972Z,14.27
2018-04-23T12:32:34.957Z,13.41
2018-04-23T12:35:03.875Z,13.69
2018-04-23T12:37:32.779Z,13.66
2018-04-23T12:40:01.531Z,13.91
2018-04-23T12:42:30.148Z,14.72
2018-04-23T12:44:58.938Z,14.16
2018-04-23T12:47:27.808Z,14.26
2018-04-23T12:49:56.619Z,14.44
2018-04-23T12:52:25.544Z,14.16
2018-04-23T12:54:54.767Z,14.11
2018-04-23T12:57:25.576Z,14.12
2018-04-23T13:02:31.227Z,14.72
2018-04-23T13:05:00.145Z,13.92
2018-04-23T13:07:29.163Z,14.28
2018-04-23T13:09:58.001Z,14.31
2018-04-23T13:12:27.855Z,14.79
2018-04-23T13:14:57.322Z,14.98
2018-04-23T13:17:26.233Z,15.18
2018-04-23T13:19:55.815Z,15.29
2018-04-23T13:22:25.826Z,15.95
2018-04-23T13:24:54.529Z,16.97
2018-04-23T13:27:24.314Z,15.56
2018-04-23T13:29:53.187Z,15.17
2018-04-23T13:32:21.854Z,15.27
2018-04-23T13:34:50.904Z,15.00
2018-04-23T13:37:19.718Z,14.49
2018-04-23T13:39:48.595Z,15.75
2018-04-23T13:42:17.456Z,16.54
2018-04-23T13:44:46.184Z,17.25
2018-04-23T13:47:14.885Z,18.32
2018-04-23T13:49:44.495Z,18.10
2018-04-23T13:52:13.679Z,18.90
2018-04-23T13:54:43.178Z,18.50
2018-04-23T13:57:14.131Z,20.19
2018-04-23T13:59:42.998Z,21.65
2018-04-23T14:02:11.829Z,23.14
2018-04-23T14:04:41.180Z,24.42
2018-04-23T14:07:10.811Z,25.27
2018-04-23T14:09:39.573Z,26.26
2018-04-23T14:12:08.255Z,27.00
2018-04-23T14:14:37.152Z,27.09
2018-04-23T14:17:06.187Z,27.51
2018-04-23T14:19:36.938Z,27.21
2018-04-23T14:22:10.682Z,26.43
2018-04-23T14:24:40.990Z,25.72
2018-04-23T14:29:46.485Z,26.61
2018-04-23T14:32:15.179Z,27.26
2018-04-23T14:34:45.642Z,26.49
2018-04-23T14:37:15.181Z,26.66
2018-04-23T14:39:44.949Z,25.67
2018-04-23T14:42:15.589Z,25.05
2018-04-23T14:44:44.976Z,26.42
2018-04-23T14:47:14.145Z,25.52
2018-04-23T14:49:44.086Z,25.25
2018-04-23T14:52:14.250Z,24.27
2018-04-23T14:54:44.310Z,23.93
2018-04-23T14:57:13.336Z,24.26
2018-04-23T14:59:43.023Z,24.45
2018-04-23T15:02:12.314Z,25.12
2018-04-23T15:04:41.987Z,25.62
2018-04-23T15:07:12.312Z,25.39
2018-04-23T15:12:21.706Z,25.75
2018-04-23T15:14:50.944Z,26.32
2018-04-23T15:19:59.498Z,26.91
2018-04-23T15:22:29.083Z,27.98
2018-04-23T15:24:59.385Z,26.98
2018-04-23T15:27:29.113Z,26.60
2018-04-23T15:29:58.119Z,26.29
2018-04-23T15:32:27.037Z,27.26
2018-04-23T15:37:40.944Z,28.23
2018-04-23T15:40:11.695Z,27.78
2018-04-23T15:42:45.412Z,27.49
2018-04-23T15:45:15.291Z,28.52
2018-04-23T15:47:45.742Z,28.64
2018-04-23T15:50:15.667Z,29.14
2018-04-23T15:52:46.331Z,29.00
2018-04-23T15:55:16.409Z,29.96
2018-04-23T15:57:46.382Z,30.05
2018-04-23T16:00:15.563Z,28.82
2018-04-23T16:02:44.458Z,28.86
2018-04-23T16:05:13.697Z,28.85
2018-04-23T16:07:42.487Z,29.54
2018-04-23T16:10:12.326Z,29.75
2018-04-23T16:12:41.913Z,30.10
2018-04-23T16:15:10.832Z,30.45
2018-04-23T16:17:46.421Z,30.55
2018-04-23T16:20:17.818Z,30.78
2018-04-23T16:22:48.264Z,30.57
2018-04-23T16:25:16.927Z,31.38
2018-04-23T16:30:19.557Z,32.26
2018-04-23T16:32:48.314Z,32.59
2018-04-23T16:35:17.431Z,32.68
2018-04-23T16:37:47.606Z,32.99
2018-04-23T16:40:17.855Z,32.75
2018-04-23T16:42:48.034Z,33.14
2018-04-23T16:45:17.518Z,33.22
2018-04-23T16:47:48.846Z,33.34
2018-04-23T16:50:17.672Z,32.61
2018-04-23T16:52:46.516Z,32.93
2018-04-23T16:55:15.515Z,33.26
2018-04-23T16:57:45.053Z,33.05
2018-04-23T17:00:14.758Z,33.50
2018-04-23T17:02:43.583Z,33.77
2018-04-23T17:05:13.013Z,34.02
2018-04-23T17:07:42.582Z,34.44
2018-04-23T17:10:12.437Z,34.99
2018-04-23T17:12:41.961Z,35.12
2018-04-23T17:15:11.116Z,35.80
2018-04-23T17:17:40.617Z,36.20
2018-04-23T17:20:09.427Z,36.56
2018-04-23T17:22:38.230Z,37.16
2018-04-23T17:25:07.054Z,37.38
2018-04-23T17:27:35.799Z,37.57
2018-04-23T17:30:04.677Z,37.33
2018-04-23T17:32:33.386Z,37.63
2018-04-23T17:35:02.263Z,37.89
2018-04-23T17:37:30.995Z,37.68
2018-04-23T17:40:00.158Z,37.58
2018-04-23T17:42:29.671Z,37.97
2018-04-23T17:45:00.956Z,38.49
2018-04-23T17:47:29.979Z,36.86
2018-04-23T17:49:58.697Z,37.16
2018-04-23T17:52:29.348Z,36.73
2018-04-23T17:54:58.091Z,36.81
2018-04-23T17:57:26.764Z,35.23
2018-04-23T17:59:55.449Z,35.29
2018-04-23T18:02:25.240Z,35.63
2018-04-23T18:04:54.895Z,34.81
2018-04-23T18:07:24.329Z,34.90
2018-04-23T18:12:27.357Z,34.78
2018-04-23T18:14:56.966Z,34.61
2018-04-23T18:17:26.266Z,34.68
2018-04-23T18:19:55.045Z,34.51
2018-04-23T18:22:24.009Z,34.54
2018-04-23T18:24:53.557Z,34.69
2018-04-23T18:27:23.377Z,34.65
2018-04-23T18:29:54.543Z,34.78
2018-04-23T18:32:24.005Z,35.34
2018-04-23T18:34:54.488Z,36.75
2018-04-23T18:37:23.947Z,36.56
2018-04-23T18:39:53.030Z,37.38
2018-04-23T18:42:22.706Z,37.69
2018-04-23T18:44:52.013Z,38.60
2018-04-23T18:47:21.539Z,39.27
2018-04-23T18:49:51.217Z,39.87
2018-04-23T18:52:20.645Z,41.25
2018-04-23T18:54:50.025Z,41.53
2018-04-23T18:57:20.038Z,41.56
2018-04-23T18:59:50.207Z,41.36
2018-04-23T19:02:21.105Z,41.82
2018-04-23T19:04:52.423Z,43.58
2018-04-23T19:07:22.090Z,43.35
2018-04-23T19:09:51.531Z,44.44
2018-04-23T19:12:20.605Z,44.77
2018-04-23T19:14:51.156Z,45.46
2018-04-23T19:17:21.631Z,45.81
2018-04-23T19:19:51.630Z,46.25
2018-04-23T19:22:22.817Z,46.23
2018-04-23T19:24:53.151Z,45.22
2018-04-23T19:27:23.324Z,45.39
2018-04-23T19:29:52.231Z,45.83
2018-04-23T19:32:21.924Z,46.76
2018-04-23T19:37:25.251Z,48.78
2018-04-23T19:39:54.867Z,48.67
2018-04-23T19:42:25.664Z,50.21
2018-04-23T19:44:55.279Z,50.39
2018-04-23T19:47:25.156Z,51.37
2018-04-23T19:49:56.779Z,51.33
2018-04-23T19:52:26.421Z,51.13
2018-04-23T19:54:55.985Z,50.85
2018-04-23T19:57:25.489Z,51.65
2018-04-23T19:59:54.922Z,51.40
2018-04-23T20:02:24.494Z,51.10
2018-04-23T20:07:28.646Z,51.16
2018-04-23T20:09:59.158Z,51.24
2018-04-23T20:12:28.419Z,50.41
2018-04-23T20:14:57.284Z,51.89
2018-04-23T20:17:26.057Z,51.74
2018-04-23T20:19:56.925Z,51.92
2018-04-23T20:22:26.321Z,51.13
2018-04-23T20:24:56.530Z,51.24
2018-04-23T20:27:25.857Z,51.28
2018-04-23T20:29:55.355Z,50.82
2018-04-23T20:32:25.648Z,51.23
2018-04-23T20:34:57.300Z,50.59
2018-04-23T20:37:26.328Z,50.82
2018-04-23T20:39:55.283Z,51.13
2018-04-23T20:42:25.208Z,50.78
2018-04-23T20:45:01.129Z,50.88
2018-04-23T20:47:31.659Z,51.05
2018-04-23T20:50:00.660Z,52.20
2018-04-23T20:52:29.997Z,51.63
2018-04-23T20:54:59.328Z,51.58
2018-04-23T20:57:29.378Z,51.98
2018-04-23T20:59:58.402Z,51.93
2018-04-23T21:02:26.974Z,53.50
2018-04-23T21:04:56.002Z,54.63
2018-04-23T21:07:24.902Z,53.03
2018-04-23T21:09:54.394Z,55.05
2018-04-23T21:12:23.672Z,55.68
2018-04-23T21:14:52.597Z,56.84
2018-04-23T21:17:21.560Z,57.68
2018-04-23T21:19:50.874Z,58.76
2018-04-23T21:22:20.447Z,59.28
2018-04-23T21:24:50.199Z,58.88
2018-04-23T21:27:20.486Z,57.98
2018-04-23T21:29:51.574Z,57.03
2018-04-23T21:32:20.273Z,57.60
2018-04-23T21:34:49.231Z,58.02
2018-04-23T21:37:18.295Z,56.18
2018-04-23T21:39:47.436Z,55.87
2018-04-23T21:42:15.975Z,55.39
2018-04-23T21:44:44.855Z,55.05
2018-04-23T21:47:14.374Z,55.12
2018-04-23T21:49:43.253Z,55.32
2018-04-23T21:52:12.213Z,56.56
2018-04-23T21:54:42.824Z,55.99
2018-04-23T21:57:12.082Z,56.63
2018-04-23T21:59:42.012Z,56.42
2018-04-23T22:02:10.867Z,56.59
2018-04-23T22:04:39.837Z,56.75
2018-04-23T22:07:08.677Z,57.13
2018-04-23T22:09:37.458Z,56.93
2018-04-23T22:12:06.341Z,57.59
2018-04-23T22:14:35.092Z,57.99
2018-04-23T22:17:05.427Z,58.35
2018-04-23T22:19:33.997Z,58.81
2018-04-23T22:22:03.719Z,58.97
2018-04-23T22:27:06.536Z,59.22
2018-04-23T22:29:35.225Z,59.17
2018-04-23T22:32:04.718Z,59.68
2018-04-23T22:34:34.174Z,59.90
2018-04-23T22:37:02.780Z,60.12
2018-04-23T22:39:31.365Z,61.12
2018-04-23T22:41:59.961Z,61.90
2018-04-23T22:44:29.249Z,63.68
2018-04-23T22:46:58.575Z,62.18
2018-04-23T22:49:27.471Z,63.58
2018-04-23T22:51:56.752Z,63.82
2018-04-23T22:54:25.773Z,62.87
2018-04-23T22:56:55.274Z,62.73
2018-04-23T22:59:24.034Z,63.08
2018-04-23T23:01:52.850Z,62.92
2018-04-23T23:04:22.344Z,63.54
2018-04-23T23:06:51.334Z,62.97
2018-04-23T23:09:20.073Z,63.32
2018-04-23T23:11:48.861Z,64.35
2018-04-23T23:14:17.774Z,66.38
2018-04-23T23:16:46.464Z,65.67
2018-04-23T23:19:15.265Z,67.09
2018-04-23T23:21:44.534Z,67.68
2018-04-23T23:24:14.123Z,68.50
2018-04-23T23:26:42.888Z,68.55
2018-04-23T23:29:12.211Z,68.84
2018-04-23T23:31:40.818Z,69.38
2018-04-23T23:34:10.188Z,69.67
2018-04-23T23:39:12.485Z,68.04
2018-04-23T23:41:41.941Z,68.67
2018-04-23T23:44:10.697Z,68.94
2018-04-23T23:46:40.482Z,69.00
2018-04-23T23:49:10.094Z,69.33
2018-04-23T23:51:39.151Z,69.64
2018-04-23T23:54:07.711Z,67.64
2018-04-23T23:56:36.433Z,68.46
